sensor_id;sensor_type;location;lat;lon;timestamp;temperature;humidity
24087;DHT22;22893;50.572;7.234;2022-12-17T05:40:11;19.30;45.50
24087;DHT22;22893;50.572;7.234;2022-12-17T05:42:59;19.30;45.20
24087;DHT22;22893;50.572;7.234;2022-12-17T05:45:46;19.50;44.50
24087;DHT22;22893;50.572;7.234;2022-12-17T05:48:32;19.60;44.50
24087;DHT22;22893;50.572;7.234;2022-12-17T05:51:19;19.80;44.10
24087;DHT22;22893;50.572;7.234;2022-12-17T05:54:05;19.80;45.40
24087;DHT22;22893;50.572;7.234;2022-12-17T05:56:51;19.90;44.40
24087;DHT22;22893;50.572;7.234;2022-12-17T05:59:37;20.10;43.80
24087;DHT22;22893;50.572;7.234;2022-12-17T06:02:23;20.10;43.50
24087;DHT22;22893;50.572;7.234;2022-12-17T06:05:09;20.20;43.40
24087;DHT22;22893;50.572;7.234;2022-12-17T06:08:07;20.20;43.30
24087;DHT22;22893;50.572;7.234;2022-12-17T06:10:49;20.30;43.40
24087;DHT22;22893;50.572;7.234;2022-12-17T06:13:35;20.30;43.20
24087;DHT22;22893;50.572;7.234;2022-12-17T06:16:20;20.30;43.10
24087;DHT22;22893;50.572;7.234;2022-12-17T06:19:06;20.40;42.90
24087;DHT22;22893;50.572;7.234;2022-12-17T06:21:51;20.30;42.90
24087;DHT22;22893;50.572;7.234;2022-12-17T06:24:37;20.40;42.90
24087;DHT22;22893;50.572;7.234;2022-12-17T06:27:22;20.40;42.90
24087;DHT22;22893;50.572;7.234;2022-12-17T06:30:08;20.40;43.10
24087;DHT22;22893;50.572;7.234;2022-12-17T06:33:05;20.40;42.90
24087;DHT22;22893;50.572;7.234;2022-12-17T06:35:52;20.40;42.90
24087;DHT22;22893;50.572;7.234;2022-12-17T06:38:38;20.40;43.00
24087;DHT22;22893;50.572;7.234;2022-12-17T06:41:23;20.40;43.10
24087;DHT22;22893;50.572;7.234;2022-12-17T06:44:09;20.40;42.90
24087;DHT22;22893;50.572;7.234;2022-12-17T06:46:54;20.50;43.00
24087;DHT22;22893;50.572;7.234;2022-12-17T06:49:40;20.50;43.30
24087;DHT22;22893;50.572;7.234;2022-12-17T06:52:09;20.40;43.80
24087;DHT22;22893;50.572;7.234;2022-12-17T06:54:55;20.50;43.40
24087;DHT22;22893;50.572;7.234;2022-12-17T06:57:41;20.50;43.40
24087;DHT22;22893;50.572;7.234;2022-12-17T07:00:26;20.50;43.20
24087;DHT22;22893;50.572;7.234;2022-12-17T07:03:12;20.50;43.10
24087;DHT22;22893;50.572;7.234;2022-12-17T07:05:59;20.50;43.40
24087;DHT22;22893;50.572;7.234;2022-12-17T07:08:46;20.50;43.10
24087;DHT22;22893;50.572;7.234;2022-12-17T07:11:31;20.50;43.00
24087;DHT22;22893;50.572;7.234;2022-12-17T07:14:16;20.50;43.40
24087;DHT22;22893;50.572;7.234;2022-12-17T16:26:00;19.80;45.20
24087;DHT22;22893;50.572;7.234;2022-12-17T16:28:28;19.90;45.60
24087;DHT22;22893;50.572;7.234;2022-12-17T16:31:05;20.10;45.00
24087;DHT22;22893;50.572;7.234;2022-12-17T16:33:34;20.20;44.70
24087;DHT22;22893;50.572;7.234;2022-12-17T16:36:03;20.40;44.40
24087;DHT22;22893;50.572;7.234;2022-12-17T16:38:32;20.50;44.30
24087;DHT22;22893;50.572;7.234;2022-12-17T16:41:01;20.50;43.70
24087;DHT22;22893;50.572;7.234;2022-12-17T16:43:34;20.60;44.20
24087;DHT22;22893;50.572;7.234;2022-12-17T16:46:01;20.70;44.20
24087;DHT22;22893;50.572;7.234;2022-12-17T16:48:35;20.80;43.80
24087;DHT22;22893;50.572;7.234;2022-12-17T16:51:00;20.90;43.80
24087;DHT22;22893;50.572;7.234;2022-12-17T16:53:29;20.90;43.80
24087;DHT22;22893;50.572;7.234;2022-12-17T16:55:57;20.90;43.70
24087;DHT22;22893;50.572;7.234;2022-12-17T16:58:24;20.90;43.30
24087;DHT22;22893;50.572;7.234;2022-12-17T17:00:55;21.00;43.40
24087;DHT22;22893;50.572;7.234;2022-12-17T17:03:22;21.00;43.20
24087;DHT22;22893;50.572;7.234;2022-12-17T17:05:50;21.00;43.20
24087;DHT22;22893;50.572;7.234;2022-12-17T17:08:17;21.10;43.30
24087;DHT22;22893;50.572;7.234;2022-12-17T17:10:45;21.10;43.20
24087;DHT22;22893;50.572;7.234;2022-12-17T17:13:12;21.10;43.20
24087;DHT22;22893;50.572;7.234;2022-12-17T17:15:40;21.10;43.10
24087;DHT22;22893;50.572;7.234;2022-12-17T17:18:08;21.10;43.30
24087;DHT22;22893;50.572;7.234;2022-12-17T17:20:35;21.10;43.30
24087;DHT22;22893;50.572;7.234;2022-12-17T17:23:03;21.10;43.20
24087;DHT22;22893;50.572;7.234;2022-12-17T17:25:31;21.10;43.30
24087;DHT22;22893;50.572;7.234;2022-12-17T17:27:58;21.10;43.50
24087;DHT22;22893;50.572;7.234;2022-12-17T17:30:26;21.20;43.50
24087;DHT22;22893;50.572;7.234;2022-12-17T17:32:54;21.20;43.70
24087;DHT22;22893;50.572;7.234;2022-12-17T17:35:21;21.20;43.80
24087;DHT22;22893;50.572;7.234;2022-12-17T17:37:49;21.20;43.80
24087;DHT22;22893;50.572;7.234;2022-12-17T17:40:16;21.10;43.60
24087;DHT22;22893;50.572;7.234;2022-12-17T17:42:44;21.20;43.80
24087;DHT22;22893;50.572;7.234;2022-12-17T17:45:11;21.20;43.70
24087;DHT22;22893;50.572;7.234;2022-12-17T17:47:39;21.20;43.80
24087;DHT22;22893;50.572;7.234;2022-12-17T17:50:07;21.20;43.80
24087;DHT22;22893;50.572;7.234;2022-12-17T17:52:35;21.20;43.90
24087;DHT22;22893;50.572;7.234;2022-12-17T17:55:02;21.20;43.90
24087;DHT22;22893;50.572;7.234;2022-12-17T17:57:30;21.20;43.90
24087;DHT22;22893;50.572;7.234;2022-12-17T17:59:57;21.20;43.90
24087;DHT22;22893;50.572;7.234;2022-12-17T18:02:25;21.20;44.10
24087;DHT22;22893;50.572;7.234;2022-12-17T18:04:53;21.20;44.00
24087;DHT22;22893;50.572;7.234;2022-12-17T18:07:20;21.20;44.00
24087;DHT22;22893;50.572;7.234;2022-12-17T18:09:48;21.20;44.00
24087;DHT22;22893;50.572;7.234;2022-12-17T18:12:15;21.20;43.90
24087;DHT22;22893;50.572;7.234;2022-12-17T18:15:01;21.20;43.90
24087;DHT22;22893;50.572;7.234;2022-12-17T18:17:30;21.20;44.00
24087;DHT22;22893;50.572;7.234;2022-12-17T18:19:57;21.20;43.90
24087;DHT22;22893;50.572;7.234;2022-12-17T18:22:25;21.20;43.80
24087;DHT22;22893;50.572;7.234;2022-12-17T18:24:53;21.20;43.90
24087;DHT22;22893;50.572;7.234;2022-12-17T18:27:21;21.20;43.80
24087;DHT22;22893;50.572;7.234;2022-12-17T18:29:48;21.20;43.80
24087;DHT22;22893;50.572;7.234;2022-12-17T18:32:16;21.20;43.90
24087;DHT22;22893;50.572;7.234;2022-12-17T18:34:44;21.20;43.80
24087;DHT22;22893;50.572;7.234;2022-12-17T18:37:11;21.20;43.80
24087;DHT22;22893;50.572;7.234;2022-12-17T18:39:39;21.20;43.90
24087;DHT22;22893;50.572;7.234;2022-12-17T18:42:07;21.20;43.90
24087;DHT22;22893;50.572;7.234;2022-12-17T18:44:53;21.30;43.80
24087;DHT22;22893;50.572;7.234;2022-12-17T18:47:20;21.20;44.60
24087;DHT22;22893;50.572;7.234;2022-12-17T18:49:48;21.20;44.50
24087;DHT22;22893;50.572;7.234;2022-12-17T18:52:15;21.10;44.60
24087;DHT22;22893;50.572;7.234;2022-12-17T18:54:43;21.10;44.60
24087;DHT22;22893;50.572;7.234;2022-12-17T18:57:30;21.10;44.50
24087;DHT22;22893;50.572;7.234;2022-12-17T18:59:57;21.20;44.30
24087;DHT22;22893;50.572;7.234;2022-12-17T19:02:25;21.20;44.20
24087;DHT22;22893;50.572;7.234;2022-12-17T19:04:52;21.20;44.30
24087;DHT22;22893;50.572;7.234;2022-12-17T19:07:20;21.20;44.30
24087;DHT22;22893;50.572;7.234;2022-12-17T19:09:47;21.20;44.00
24087;DHT22;22893;50.572;7.234;2022-12-17T19:12:15;21.20;44.00
24087;DHT22;22893;50.572;7.234;2022-12-17T19:14:43;21.20;44.30
24087;DHT22;22893;50.572;7.234;2022-12-17T19:17:10;21.20;43.90
24087;DHT22;22893;50.572;7.234;2022-12-17T19:19:38;21.20;43.90
24087;DHT22;22893;50.572;7.234;2022-12-17T19:22:05;21.20;43.90
24087;DHT22;22893;50.572;7.234;2022-12-17T19:24:33;21.30;43.90
24087;DHT22;22893;50.572;7.234;2022-12-17T19:27:01;21.30;43.80
24087;DHT22;22893;50.572;7.234;2022-12-17T19:29:28;21.30;43.90
24087;DHT22;22893;50.572;7.234;2022-12-17T19:31:56;21.30;43.80
24087;DHT22;22893;50.572;7.234;2022-12-17T19:34:24;21.20;43.80
24087;DHT22;22893;50.572;7.234;2022-12-17T19:36:51;21.30;43.80
24087;DHT22;22893;50.572;7.234;2022-12-17T19:39:19;21.30;43.70
24087;DHT22;22893;50.572;7.234;2022-12-17T19:41:48;21.30;43.60
24087;DHT22;22893;50.572;7.234;2022-12-17T19:44:17;21.30;43.60
24087;DHT22;22893;50.572;7.234;2022-12-17T19:46:46;21.30;43.60
24087;DHT22;22893;50.572;7.234;2022-12-17T19:49:15;21.30;43.40
24087;DHT22;22893;50.572;7.234;2022-12-17T19:51:43;21.30;43.40
24087;DHT22;22893;50.572;7.234;2022-12-17T19:54:12;21.30;43.50
24087;DHT22;22893;50.572;7.234;2022-12-17T19:56:43;21.30;43.50
24087;DHT22;22893;50.572;7.234;2022-12-17T19:59:11;21.30;43.40
24087;DHT22;22893;50.572;7.234;2022-12-17T20:01:42;21.30;43.50
24087;DHT22;22893;50.572;7.234;2022-12-17T20:04:14;21.30;43.50
24087;DHT22;22893;50.572;7.234;2022-12-17T20:06:43;21.20;44.40
24087;DHT22;22893;50.572;7.234;2022-12-17T20:09:11;21.20;44.20
24087;DHT22;22893;50.572;7.234;2022-12-17T20:11:40;21.30;44.00
24087;DHT22;22893;50.572;7.234;2022-12-17T20:19:14;21.30;43.80
24087;DHT22;22893;50.572;7.234;2022-12-17T20:21:42;21.30;43.80
24087;DHT22;22893;50.572;7.234;2022-12-17T20:24:10;21.30;43.80
24087;DHT22;22893;50.572;7.234;2022-12-17T20:26:39;21.30;43.80
24087;DHT22;22893;50.572;7.234;2022-12-17T20:29:07;21.30;43.60
24087;DHT22;22893;50.572;7.234;2022-12-17T20:31:36;21.30;43.70
24087;DHT22;22893;50.572;7.234;2022-12-17T20:34:05;21.30;43.70
24087;DHT22;22893;50.572;7.234;2022-12-17T20:36:33;21.30;43.70
24087;DHT22;22893;50.572;7.234;2022-12-17T20:39:01;21.30;43.70
24087;DHT22;22893;50.572;7.234;2022-12-17T20:41:31;21.30;43.70
24087;DHT22;22893;50.572;7.234;2022-12-17T20:44:05;21.30;43.50
24087;DHT22;22893;50.572;7.234;2022-12-17T20:46:34;21.30;43.40
24087;DHT22;22893;50.572;7.234;2022-12-17T20:49:04;21.30;43.50
24087;DHT22;22893;50.572;7.234;2022-12-17T20:51:33;21.30;43.50
24087;DHT22;22893;50.572;7.234;2022-12-17T20:54:02;21.30;43.60
24087;DHT22;22893;50.572;7.234;2022-12-17T20:56:31;21.30;43.50
24087;DHT22;22893;50.572;7.234;2022-12-17T20:59:02;21.30;43.50
24087;DHT22;22893;50.572;7.234;2022-12-17T21:01:32;21.30;43.50
24087;DHT22;22893;50.572;7.234;2022-12-17T21:04:02;21.40;43.50
24087;DHT22;22893;50.572;7.234;2022-12-17T21:06:34;21.30;43.50
24087;DHT22;22893;50.572;7.234;2022-12-17T21:09:01;21.30;43.50
24087;DHT22;22893;50.572;7.234;2022-12-17T21:11:31;21.40;43.50
24087;DHT22;22893;50.572;7.234;2022-12-17T21:14:07;21.30;43.40
24087;DHT22;22893;50.572;7.234;2022-12-17T21:16:38;21.30;43.40
24087;DHT22;22893;50.572;7.234;2022-12-17T21:19:08;21.30;43.50
24087;DHT22;22893;50.572;7.234;2022-12-17T21:21:37;21.30;43.60
24087;DHT22;22893;50.572;7.234;2022-12-17T21:24:05;21.30;43.50
24087;DHT22;22893;50.572;7.234;2022-12-17T21:26:36;21.30;43.40
24087;DHT22;22893;50.572;7.234;2022-12-17T21:29:05;21.40;43.50
24087;DHT22;22893;50.572;7.234;2022-12-17T21:31:39;21.30;43.50
24087;DHT22;22893;50.572;7.234;2022-12-17T21:34:15;21.30;43.40
24087;DHT22;22893;50.572;7.234;2022-12-17T21:36:44;21.30;43.40
24087;DHT22;22893;50.572;7.234;2022-12-17T21:39:12;21.30;43.30
24087;DHT22;22893;50.572;7.234;2022-12-17T21:41:42;21.30;43.30
24087;DHT22;22893;50.572;7.234;2022-12-17T21:44:12;21.30;43.20
24087;DHT22;22893;50.572;7.234;2022-12-17T21:46:40;21.40;43.40
24087;DHT22;22893;50.572;7.234;2022-12-17T21:49:08;21.30;43.30
24087;DHT22;22893;50.572;7.234;2022-12-17T21:51:36;21.40;43.30
24087;DHT22;22893;50.572;7.234;2022-12-17T21:54:03;21.30;43.30
24087;DHT22;22893;50.572;7.234;2022-12-17T21:56:31;21.40;43.40
24087;DHT22;22893;50.572;7.234;2022-12-17T21:59:00;21.40;43.40
24087;DHT22;22893;50.572;7.234;2022-12-17T22:01:30;21.40;43.30
24087;DHT22;22893;50.572;7.234;2022-12-17T22:04:03;21.40;43.20
24087;DHT22;22893;50.572;7.234;2022-12-17T22:06:32;21.40;43.30
24087;DHT22;22893;50.572;7.234;2022-12-17T22:09:01;21.40;43.30
24087;DHT22;22893;50.572;7.234;2022-12-17T22:11:29;21.40;43.10
24087;DHT22;22893;50.572;7.234;2022-12-17T22:13:57;21.40;43.20
24087;DHT22;22893;50.572;7.234;2022-12-17T22:16:38;21.40;43.10
24087;DHT22;22893;50.572;7.234;2022-12-17T22:19:09;21.40;43.00
24087;DHT22;22893;50.572;7.234;2022-12-17T22:21:39;21.40;43.00
24087;DHT22;22893;50.572;7.234;2022-12-17T22:24:16;21.40;42.90
24087;DHT22;22893;50.572;7.234;2022-12-17T22:26:45;21.40;43.00
24087;DHT22;22893;50.572;7.234;2022-12-17T22:29:13;21.30;43.10
24087;DHT22;22893;50.572;7.234;2022-12-17T22:31:42;21.30;42.80
24087;DHT22;22893;50.572;7.234;2022-12-17T22:34:28;21.30;42.90
24087;DHT22;22893;50.572;7.234;2022-12-17T22:36:56;21.30;42.70
24087;DHT22;22893;50.572;7.234;2022-12-17T22:39:23;21.30;42.60
24087;DHT22;22893;50.572;7.234;2022-12-17T22:41:51;21.30;42.80
24087;DHT22;22893;50.572;7.234;2022-12-17T22:44:39;21.30;42.90
24087;DHT22;22893;50.572;7.234;2022-12-17T22:47:06;21.30;42.80
24087;DHT22;22893;50.572;7.234;2022-12-17T22:49:34;21.30;42.60
24087;DHT22;22893;50.572;7.234;2022-12-17T22:52:02;21.30;42.60
24087;DHT22;22893;50.572;7.234;2022-12-17T22:54:29;21.30;42.60
24087;DHT22;22893;50.572;7.234;2022-12-17T22:56:59;21.30;42.60
24087;DHT22;22893;50.572;7.234;2022-12-17T22:59:26;21.30;42.60
24087;DHT22;22893;50.572;7.234;2022-12-17T23:01:54;21.30;42.40
24087;DHT22;22893;50.572;7.234;2022-12-17T23:04:21;21.30;42.50
24087;DHT22;22893;50.572;7.234;2022-12-17T23:06:49;21.30;42.50
24087;DHT22;22893;50.572;7.234;2022-12-17T23:09:18;21.30;42.60
24087;DHT22;22893;50.572;7.234;2022-12-17T23:11:47;21.30;42.60
24087;DHT22;22893;50.572;7.234;2022-12-17T23:14:16;21.30;42.50
24087;DHT22;22893;50.572;7.234;2022-12-17T23:16:43;21.30;42.50
24087;DHT22;22893;50.572;7.234;2022-12-17T23:19:13;21.30;42.50
24087;DHT22;22893;50.572;7.234;2022-12-17T23:21:40;21.30;42.50
24087;DHT22;22893;50.572;7.234;2022-12-17T23:24:08;21.20;42.20
24087;DHT22;22893;50.572;7.234;2022-12-17T23:26:36;21.20;42.20
24087;DHT22;22893;50.572;7.234;2022-12-17T23:29:07;21.30;42.20
24087;DHT22;22893;50.572;7.234;2022-12-17T23:31:37;21.20;42.00
24087;DHT22;22893;50.572;7.234;2022-12-17T23:34:06;21.20;42.00
24087;DHT22;22893;50.572;7.234;2022-12-17T23:36:35;21.30;42.30
